Time;durP1;ratioP1;P1;durP2;ratioP2;P2;SDS_P1;SDS_P2;PMS_P1;PMS_P2;Temp;Humidity;BMP_temperature;BMP_pressure;BME280_temperature;BME280_humidity;BME280_pressure;Samples;Min_cycle;Max_cycle;Signal;HPM_P1;HPM_P2
2021/10/19 00:00:59;;;;;;;4.47;3.35;;;;;;;;;;5106475;28;20054;-67
2021/10/19 00:03:25;;;;;;;4.15;2.95;;;;;;;;;;5102988;28;20039;-67
2021/10/19 00:05:50;;;;;;;4.50;3.33;;;;;;;;;;5100618;28;20431;-68
2021/10/19 00:08:15;;;;;;;4.75;3.83;;;;;;;;;;5106921;28;20035;-68
2021/10/19 00:10:41;;;;;;;4.18;3.22;;;;;;;;;;5103643;28;20027;-68
2021/10/19 00:13:07;;;;;;;2.83;2.17;;;;;;;;;;5105373;28;20119;-68
2021/10/19 00:15:32;;;;;;;4.78;3.35;;;;;;;;;;5107180;28;20169;-68
2021/10/19 00:17:57;;;;;;;3.42;3.00;;;;;;;;;;5107643;28;20468;-68
2021/10/19 00:20:23;;;;;;;5.00;2.85;;;;;;;;;;5105104;28;20039;-68
2021/10/19 00:22:48;;;;;;;6.57;4.50;;;;;;;;;;5105447;28;20027;-69
2021/10/19 00:25:17;;;;;;;6.00;4.15;;;;;;;;;;5105080;28;20044;-67
2021/10/19 00:27:43;;;;;;;4.22;3.25;;;;;;;;;;5102223;28;20039;-68
2021/10/19 00:30:10;;;;;;;5.15;4.13;;;;;;;;;;5102922;28;20107;-67
2021/10/19 00:32:39;;;;;;;3.15;2.50;;;;;;;;;;5104642;28;20066;-67
2021/10/19 00:35:06;;;;;;;4.25;3.10;;;;;;;;;;5104351;28;20348;-67
2021/10/19 00:37:32;;;;;;;3.92;3.38;;;;;;;;;;5103145;28;20040;-67
2021/10/19 00:39:57;;;;;;;3.90;3.35;;;;;;;;;;5105903;28;20036;-67
2021/10/19 00:42:23;;;;;;;4.40;3.08;;;;;;;;;;5104365;28;20032;-68
2021/10/19 00:44:48;;;;;;;3.60;2.65;;;;;;;;;;5101562;28;20028;-67
2021/10/19 00:47:20;;;;;;;5.18;3.17;;;;;;;;;;5105407;28;20032;-66
2021/10/19 00:49:47;;;;;;;4.00;3.33;;;;;;;;;;5089248;28;20027;-67
2021/10/19 00:52:13;;;;;;;3.58;2.75;;;;;;;;;;5104885;28;20028;-68
2021/10/19 00:54:38;;;;;;;5.85;3.45;;;;;;;;;;5102772;28;20102;-68
2021/10/19 00:57:04;;;;;;;3.50;2.83;;;;;;;;;;5104360;28;20146;-67
2021/10/19 00:59:30;;;;;;;4.30;3.45;;;;;;;;;;5106383;28;20151;-68
2021/10/19 01:01:56;;;;;;;6.00;3.38;;;;;;;;;;5100496;28;20040;-67
2021/10/19 01:04:21;;;;;;;4.15;3.25;;;;;;;;;;5100783;28;20047;-67
2021/10/19 01:06:47;;;;;;;5.05;3.50;;;;;;;;;;5103663;28;20074;-69
2021/10/19 01:09:12;;;;;;;6.32;4.60;;;;;;;;;;5103521;28;20059;-68
2021/10/19 01:11:38;;;;;;;4.43;3.30;;;;;;;;;;5102731;28;20024;-69
2021/10/19 01:14:03;;;;;;;5.20;3.33;;;;;;;;;;5089432;28;20032;-69
2021/10/19 01:16:29;;;;;;;5.10;3.15;;;;;;;;;;5106586;28;20053;-68
2021/10/19 01:18:54;;;;;;;4.57;3.75;;;;;;;;;;5106527;28;20036;-68
2021/10/19 01:21:19;;;;;;;4.45;3.58;;;;;;;;;;5061753;28;20092;-68
2021/10/19 01:23:45;;;;;;;5.65;3.53;;;;;;;;;;5107892;28;20024;-68
2021/10/19 01:26:10;;;;;;;4.82;3.38;;;;;;;;;;5106790;28;20997;-68
2021/10/19 01:28:42;;;;;;;4.60;3.60;;;;;;;;;;5106260;28;20058;-68
2021/10/19 01:31:10;;;;;;;4.47;3.15;;;;;;;;;;5091519;28;20028;-69
2021/10/19 01:33:36;;;;;;;5.03;3.88;;;;;;;;;;5107724;28;20044;-69
2021/10/19 01:36:02;;;;;;;10.93;4.28;;;;;;;;;;5109601;28;20090;-69
2021/10/19 01:38:28;;;;;;;3.70;2.90;;;;;;;;;;5108385;28;20202;-69
2021/10/19 01:40:55;;;;;;;5.30;3.17;;;;;;;;;;5106959;28;20097;-67
2021/10/19 01:43:23;;;;;;;5.30;3.63;;;;;;;;;;5108330;28;20028;-68
2021/10/19 01:45:55;;;;;;;4.32;3.60;;;;;;;;;;5108090;28;20111;-68
2021/10/19 01:48:20;;;;;;;6.22;4.10;;;;;;;;;;5105091;28;20603;-69
2021/10/19 01:50:46;;;;;;;5.55;4.10;;;;;;;;;;5106812;28;20027;-68
2021/10/19 01:53:12;;;;;;;4.20;3.22;;;;;;;;;;5105148;28;20019;-68
2021/10/19 01:55:39;;;;;;;4.05;3.53;;;;;;;;;;5108868;28;20467;-68
2021/10/19 01:58:08;;;;;;;5.05;3.75;;;;;;;;;;5106596;28;20126;-69
2021/10/19 02:00:35;;;;;;;4.63;3.15;;;;;;;;;;5107334;28;20102;-68
2021/10/19 02:03:08;;;;;;;4.93;3.47;;;;;;;;;;5093963;28;20028;-69
2021/10/19 02:05:34;;;;;;;6.72;3.70;;;;;;;;;;5104881;28;20491;-68
2021/10/19 02:08:03;;;;;;;5.82;3.75;;;;;;;;;;5106078;28;20096;-68
2021/10/19 02:10:29;;;;;;;4.07;3.15;;;;;;;;;;5109538;28;20031;-68
2021/10/19 02:12:54;;;;;;;13.55;3.97;;;;;;;;;;5105834;28;20056;-68
2021/10/19 02:15:24;;;;;;;4.80;2.95;;;;;;;;;;5104655;28;20074;-68
2021/10/19 02:17:50;;;;;;;6.47;3.85;;;;;;;;;;5105155;28;20036;-68
2021/10/19 02:20:15;;;;;;;4.18;3.53;;;;;;;;;;5104906;28;20034;-67
2021/10/19 02:22:41;;;;;;;5.18;3.47;;;;;;;;;;5102324;28;20572;-67
2021/10/19 02:25:07;;;;;;;4.65;3.38;;;;;;;;;;5108501;28;20035;-68
2021/10/19 02:27:32;;;;;;;3.67;2.95;;;;;;;;;;5108374;28;20031;-67
2021/10/19 02:29:57;;;;;;;4.32;3.20;;;;;;;;;;5104895;28;20045;-67
2021/10/19 02:32:23;;;;;;;8.30;3.65;;;;;;;;;;5089427;28;20036;-67
2021/10/19 02:34:48;;;;;;;8.57;4.57;;;;;;;;;;5105291;28;20142;-67
2021/10/19 02:37:14;;;;;;;4.63;3.63;;;;;;;;;;5107826;28;20031;-67
2021/10/19 02:39:40;;;;;;;5.88;3.70;;;;;;;;;;5105912;28;20070;-67
2021/10/19 02:42:06;;;;;;;8.93;3.90;;;;;;;;;;5108095;28;20098;-67
2021/10/19 02:44:31;;;;;;;4.22;3.42;;;;;;;;;;5107377;28;20051;-68
2021/10/19 02:46:57;;;;;;;3.88;3.28;;;;;;;;;;5106949;28;20043;-68
2021/10/19 02:49:22;;;;;;;5.13;3.83;;;;;;;;;;5101810;28;20111;-67
2021/10/19 02:51:47;;;;;;;6.22;4.47;;;;;;;;;;5102518;28;20032;-68
2021/10/19 02:54:13;;;;;;;4.32;2.90;;;;;;;;;;5104366;28;20461;-68
2021/10/19 02:56:40;;;;;;;4.25;3.28;;;;;;;;;;5108001;28;20089;-68
2021/10/19 02:59:05;;;;;;;5.32;3.08;;;;;;;;;;5107421;28;20032;-67
2021/10/19 03:01:32;;;;;;;6.68;4.05;;;;;;;;;;5107462;28;20467;-69
2021/10/19 03:03:57;;;;;;;4.97;3.78;;;;;;;;;;5104350;28;20043;-68
2021/10/19 03:06:23;;;;;;;6.65;4.35;;;;;;;;;;5103928;28;20056;-68
2021/10/19 03:08:48;;;;;;;10.55;4.78;;;;;;;;;;5103138;28;20126;-68
2021/10/19 03:11:13;;;;;;;4.07;3.47;;;;;;;;;;5104796;28;20442;-69
2021/10/19 03:13:39;;;;;;;7.25;4.28;;;;;;;;;;5106015;28;20032;-69
2021/10/19 03:16:04;;;;;;;4.15;3.05;;;;;;;;;;5102198;28;20342;-69
2021/10/19 03:18:30;;;;;;;5.38;4.10;;;;;;;;;;5102073;28;20043;-69
2021/10/19 03:20:55;;;;;;;4.22;3.80;;;;;;;;;;5103942;28;20429;-68
2021/10/19 03:23:21;;;;;;;5.78;4.70;;;;;;;;;;5103501;28;20047;-69
2021/10/19 03:25:47;;;;;;;4.40;3.72;;;;;;;;;;5102808;28;20345;-69
2021/10/19 03:28:13;;;;;;;4.70;3.88;;;;;;;;;;5092787;28;20062;-69
2021/10/19 03:30:38;;;;;;;6.60;3.90;;;;;;;;;;5102452;28;20072;-69
2021/10/19 03:33:03;;;;;;;4.95;4.15;;;;;;;;;;5101417;28;20444;-69
2021/10/19 03:35:29;;;;;;;7.32;4.40;;;;;;;;;;5100882;28;20104;-69
2021/10/19 03:37:55;;;;;;;5.32;4.47;;;;;;;;;;5102937;28;20089;-69
2021/10/19 03:40:21;;;;;;;5.20;4.55;;;;;;;;;;5103464;28;20042;-69
2021/10/19 03:42:48;;;;;;;7.30;4.85;;;;;;;;;;5103149;28;20070;-69
2021/10/19 03:45:15;;;;;;;4.82;4.32;;;;;;;;;;5101435;28;20357;-69
2021/10/19 03:47:41;;;;;;;4.50;3.60;;;;;;;;;;5105406;28;20035;-69
2021/10/19 03:50:07;;;;;;;8.35;5.07;;;;;;;;;;5102850;28;20027;-69
2021/10/19 03:52:32;;;;;;;5.85;5.03;;;;;;;;;;5102205;28;20032;-69
2021/10/19 03:54:58;;;;;;;9.07;4.85;;;;;;;;;;5105839;28;20035;-71
2021/10/19 03:57:23;;;;;;;5.90;5.30;;;;;;;;;;5105130;28;20322;-70
2021/10/19 03:59:49;;;;;;;8.45;4.25;;;;;;;;;;5100643;28;20067;-70
2021/10/19 04:02:14;;;;;;;7.93;6.10;;;;;;;;;;5104728;28;20035;-70
2021/10/19 04:04:39;;;;;;;10.30;5.47;;;;;;;;;;5101753;28;20023;-70
2021/10/19 04:07:05;;;;;;;7.35;6.07;;;;;;;;;;5100002;28;20398;-69
2021/10/19 04:09:30;;;;;;;6.82;5.55;;;;;;;;;;5101873;28;20066;-70
2021/10/19 04:11:56;;;;;;;20.85;7.05;;;;;;;;;;5085764;28;20032;-70
2021/10/19 04:14:22;;;;;;;7.20;5.95;;;;;;;;;;5103820;28;20058;-69
2021/10/19 04:16:47;;;;;;;7.80;4.85;;;;;;;;;;5102990;28;20031;-69
2021/10/19 04:19:13;;;;;;;10.07;5.60;;;;;;;;;;5105883;28;20147;-70
2021/10/19 04:21:41;;;;;;;11.02;6.15;;;;;;;;;;5105124;28;20489;-69
2021/10/19 04:24:07;;;;;;;8.50;5.75;;;;;;;;;;5102842;28;20032;-70
2021/10/19 04:26:33;;;;;;;8.38;4.60;;;;;;;;;;5104441;28;20176;-69
2021/10/19 04:28:59;;;;;;;6.70;5.60;;;;;;;;;;5089865;28;20449;-69
2021/10/19 04:31:24;;;;;;;8.00;5.65;;;;;;;;;;5103714;28;20031;-69
2021/10/19 04:33:50;;;;;;;7.15;5.35;;;;;;;;;;5103849;28;20019;-69
2021/10/19 04:36:15;;;;;;;12.10;5.90;;;;;;;;;;5102466;28;20500;-70
2021/10/19 04:38:41;;;;;;;11.68;6.95;;;;;;;;;;5087311;28;20377;-69
2021/10/19 04:41:07;;;;;;;13.50;5.40;;;;;;;;;;5102906;28;20030;-69
2021/10/19 04:43:32;;;;;;;7.85;6.47;;;;;;;;;;5085231;28;20037;-69
2021/10/19 04:45:58;;;;;;;8.48;6.18;;;;;;;;;;5088425;28;20092;-69
2021/10/19 04:48:23;;;;;;;11.30;5.93;;;;;;;;;;5100966;28;20509;-69
2021/10/19 04:50:50;;;;;;;5.72;5.07;;;;;;;;;;5102495;28;20508;-70
2021/10/19 04:53:16;;;;;;;8.07;5.82;;;;;;;;;;5104881;28;20414;-71
2021/10/19 04:55:41;;;;;;;7.50;5.20;;;;;;;;;;5104030;28;20031;-73
2021/10/19 04:58:07;;;;;;;6.53;5.28;;;;;;;;;;5101072;28;20400;-73
2021/10/19 05:00:32;;;;;;;8.10;6.28;;;;;;;;;;5103834;28;20035;-71
2021/10/19 05:02:58;;;;;;;7.72;5.22;;;;;;;;;;5105109;28;20036;-71
2021/10/19 05:05:24;;;;;;;8.82;4.72;;;;;;;;;;5102927;28;20057;-70
2021/10/19 05:07:50;;;;;;;7.10;4.43;;;;;;;;;;5102678;28;20331;-72
2021/10/19 05:10:16;;;;;;;13.82;4.50;;;;;;;;;;5088176;28;20043;-72
2021/10/19 05:12:42;;;;;;;4.90;3.83;;;;;;;;;;5097103;28;20110;-72
2021/10/19 05:15:08;;;;;;;5.72;4.18;;;;;;;;;;5102222;28;20102;-74
2021/10/19 05:17:33;;;;;;;7.28;4.72;;;;;;;;;;5103615;28;20028;-72
2021/10/19 05:19:59;;;;;;;6.20;5.10;;;;;;;;;;5101216;28;20032;-73
2021/10/19 05:22:25;;;;;;;7.93;5.03;;;;;;;;;;5100542;28;20457;-71
2021/10/19 05:24:51;;;;;;;6.47;4.80;;;;;;;;;;5102417;28;20038;-70
2021/10/19 05:27:16;;;;;;;5.30;4.50;;;;;;;;;;5102847;28;20114;-71
2021/10/19 05:29:41;;;;;;;6.00;4.25;;;;;;;;;;5104169;28;20411;-72
2021/10/19 05:32:07;;;;;;;5.63;4.25;;;;;;;;;;5102890;28;20501;-73
2021/10/19 05:34:32;;;;;;;6.53;5.25;;;;;;;;;;5102827;28;20069;-73
2021/10/19 05:36:58;;;;;;;7.60;4.82;;;;;;;;;;5103233;28;20107;-70
2021/10/19 05:39:24;;;;;;;5.47;4.15;;;;;;;;;;5099194;28;20031;-70
2021/10/19 05:41:49;;;;;;;5.97;4.05;;;;;;;;;;5084930;28;20037;-71
2021/10/19 05:44:14;;;;;;;3.40;2.88;;;;;;;;;;5101450;28;20521;-69
2021/10/19 05:46:40;;;;;;;11.52;5.28;;;;;;;;;;5102952;28;20039;-74
2021/10/19 05:49:05;;;;;;;7.07;4.50;;;;;;;;;;5102579;28;20632;-71
2021/10/19 05:51:31;;;;;;;6.47;3.83;;;;;;;;;;5099825;28;20529;-71
2021/10/19 05:53:57;;;;;;;6.63;5.10;;;;;;;;;;5103736;28;20063;-70
2021/10/19 05:56:23;;;;;;;6.55;4.75;;;;;;;;;;5103017;28;20072;-72
2021/10/19 05:58:48;;;;;;;7.88;5.57;;;;;;;;;;5098401;28;20424;-73
2021/10/19 06:01:13;;;;;;;10.88;6.20;;;;;;;;;;5102889;28;20449;-74
2021/10/19 06:03:39;;;;;;;8.50;5.25;;;;;;;;;;5106397;28;20028;-74
2021/10/19 06:06:08;;;;;;;5.65;3.92;;;;;;;;;;5107365;28;20134;-74
2021/10/19 06:08:34;;;;;;;4.53;4.07;;;;;;;;;;5087724;28;20085;-71
2021/10/19 06:11:00;;;;;;;7.13;5.68;;;;;;;;;;5103725;28;20032;-75
2021/10/19 06:13:26;;;;;;;7.40;5.78;;;;;;;;;;5105678;28;20089;-75
2021/10/19 06:15:52;;;;;;;6.75;4.53;;;;;;;;;;5106404;27;20032;-74
2021/10/19 06:18:18;;;;;;;6.63;4.88;;;;;;;;;;5107046;28;20043;-74
2021/10/19 06:20:46;;;;;;;6.28;5.13;;;;;;;;;;5105375;28;20024;-73
2021/10/19 06:23:12;;;;;;;6.75;5.15;;;;;;;;;;5108009;28;20554;-74
2021/10/19 06:25:37;;;;;;;6.03;5.43;;;;;;;;;;5104767;28;20120;-74
2021/10/19 06:28:03;;;;;;;6.32;5.03;;;;;;;;;;5102236;28;20031;-74
2021/10/19 06:30:28;;;;;;;5.95;5.10;;;;;;;;;;5102410;28;20070;-73
2021/10/19 06:32:54;;;;;;;5.15;4.28;;;;;;;;;;5107316;28;20032;-73
2021/10/19 06:35:19;;;;;;;6.18;4.88;;;;;;;;;;5106116;28;20071;-73
2021/10/19 06:37:45;;;;;;;6.53;5.28;;;;;;;;;;5107339;28;20714;-73
2021/10/19 06:40:11;;;;;;;6.82;4.70;;;;;;;;;;5106594;28;20553;-74
2021/10/19 06:42:36;;;;;;;7.75;4.82;;;;;;;;;;5105658;28;20081;-72
2021/10/19 06:45:04;;;;;;;7.65;5.03;;;;;;;;;;5105042;28;20032;-74
2021/10/19 06:47:30;;;;;;;5.90;4.85;;;;;;;;;;5104185;28;20035;-74
2021/10/19 06:49:56;;;;;;;7.60;5.68;;;;;;;;;;5104407;28;20093;-74
2021/10/19 06:52:22;;;;;;;4.45;4.05;;;;;;;;;;5105092;28;20479;-74
2021/10/19 06:54:47;;;;;;;6.20;4.72;;;;;;;;;;5101993;28;20126;-73
2021/10/19 06:57:12;;;;;;;5.40;4.38;;;;;;;;;;5103205;28;20130;-73
2021/10/19 06:59:38;;;;;;;6.50;5.07;;;;;;;;;;5102957;27;20028;-74
2021/10/19 07:02:04;;;;;;;5.10;4.10;;;;;;;;;;5105812;28;20136;-75
2021/10/19 07:04:29;;;;;;;5.35;3.85;;;;;;;;;;5105930;28;20036;-74
2021/10/19 07:06:55;;;;;;;9.55;5.32;;;;;;;;;;5105523;28;20034;-74
2021/10/19 07:09:20;;;;;;;5.22;4.60;;;;;;;;;;5105803;28;20028;-74
2021/10/19 07:11:46;;;;;;;5.68;4.25;;;;;;;;;;5103346;28;20062;-74
2021/10/19 07:14:11;;;;;;;5.18;4.28;;;;;;;;;;5099682;28;20019;-74
2021/10/19 07:16:37;;;;;;;5.53;4.72;;;;;;;;;;5103073;28;20383;-75
2021/10/19 07:19:06;;;;;;;5.68;5.10;;;;;;;;;;5104657;28;20378;-74
2021/10/19 07:21:32;;;;;;;5.20;3.88;;;;;;;;;;5097686;28;20035;-74
2021/10/19 07:23:57;;;;;;;8.60;4.80;;;;;;;;;;5102059;28;20043;-73
2021/10/19 07:26:23;;;;;;;5.60;4.45;;;;;;;;;;5103596;28;20453;-74
2021/10/19 07:28:48;;;;;;;4.38;3.78;;;;;;;;;;5099962;28;20119;-74
2021/10/19 07:31:13;;;;;;;5.85;4.43;;;;;;;;;;5102165;28;20050;-73
2021/10/19 07:33:39;;;;;;;4.68;4.03;;;;;;;;;;5103926;28;20031;-72
2021/10/19 07:36:04;;;;;;;5.47;4.38;;;;;;;;;;5100756;28;20119;-73
2021/10/19 07:38:30;;;;;;;5.18;4.18;;;;;;;;;;5099129;28;20039;-72
2021/10/19 07:40:55;;;;;;;3.83;2.90;;;;;;;;;;5104612;28;20024;-72
2021/10/19 07:43:20;;;;;;;5.20;4.07;;;;;;;;;;5104292;28;20460;-71
2021/10/19 07:45:46;;;;;;;5.10;4.10;;;;;;;;;;5102205;27;20084;-72
2021/10/19 07:48:11;;;;;;;3.92;3.53;;;;;;;;;;5101294;28;20184;-71
2021/10/19 07:50:37;;;;;;;6.15;4.43;;;;;;;;;;5085735;28;20054;-71
2021/10/19 07:53:02;;;;;;;5.05;3.75;;;;;;;;;;5101008;28;20035;-73
2021/10/19 07:55:30;;;;;;;7.93;3.60;;;;;;;;;;5104663;28;20035;-72
2021/10/19 07:57:56;;;;;;;4.97;3.13;;;;;;;;;;5102863;28;20035;-72
2021/10/19 08:00:24;;;;;;;3.33;2.47;;;;;;;;;;5101063;28;20042;-73
2021/10/19 08:02:50;;;;;;;4.60;3.55;;;;;;;;;;5101621;28;20070;-72
2021/10/19 08:05:16;;;;;;;3.72;3.08;;;;;;;;;;5102978;28;20036;-72
2021/10/19 08:07:42;;;;;;;6.05;3.85;;;;;;;;;;5104853;28;20042;-71
2021/10/19 08:10:10;;;;;;;5.63;4.00;;;;;;;;;;5088509;28;20088;-71
2021/10/19 08:12:36;;;;;;;4.80;3.08;;;;;;;;;;5105057;28;20494;-72
2021/10/19 08:15:05;;;;;;;3.35;2.78;;;;;;;;;;5099568;28;20023;-64
2021/10/19 08:17:30;;;;;;;3.30;2.60;;;;;;;;;;5102621;28;20070;-64
2021/10/19 08:19:59;;;;;;;3.55;2.92;;;;;;;;;;5101095;28;20055;-64
2021/10/19 08:22:32;;;;;;;3.75;2.95;;;;;;;;;;5102361;28;20123;-64
2021/10/19 08:24:58;;;;;;;4.15;3.08;;;;;;;;;;5099608;28;20027;-64
2021/10/19 08:27:24;;;;;;;4.65;3.40;;;;;;;;;;5096979;28;20034;-65
2021/10/19 08:29:50;;;;;;;3.60;3.10;;;;;;;;;;5098396;28;20035;-65
2021/10/19 08:32:16;;;;;;;3.17;2.63;;;;;;;;;;5086038;28;20036;-65
2021/10/19 08:34:41;;;;;;;3.25;2.40;;;;;;;;;;5103371;28;20295;-65
2021/10/19 08:37:07;;;;;;;3.80;2.60;;;;;;;;;;5101935;28;20121;-66
2021/10/19 08:39:32;;;;;;;3.58;3.05;;;;;;;;;;5086287;28;20039;-66
2021/10/19 08:41:58;;;;;;;4.03;2.90;;;;;;;;;;5098437;28;20048;-65
2021/10/19 08:44:23;;;;;;;3.10;2.47;;;;;;;;;;5100049;28;20032;-66
2021/10/19 08:46:49;;;;;;;3.80;3.20;;;;;;;;;;5102108;28;20030;-64
2021/10/19 08:49:14;;;;;;;6.07;4.43;;;;;;;;;;5097935;28;20027;-65
2021/10/19 08:51:40;;;;;;;3.65;2.75;;;;;;;;;;5099402;28;20040;-64
2021/10/19 08:54:09;;;;;;;3.65;2.97;;;;;;;;;;5104440;28;20333;-64
2021/10/19 08:56:39;;;;;;;3.60;2.75;;;;;;;;;;5099771;28;20054;-64
2021/10/19 08:59:06;;;;;;;3.63;2.75;;;;;;;;;;5101876;28;20058;-64
2021/10/19 09:01:33;;;;;;;2.95;2.35;;;;;;;;;;5100974;28;20066;-64
2021/10/19 09:03:58;;;;;;;5.55;2.92;;;;;;;;;;5101396;28;20118;-64
2021/10/19 09:06:35;;;;;;;5.88;3.65;;;;;;;;;;5100554;28;20520;-63
2021/10/19 09:09:10;;;;;;;4.05;3.30;;;;;;;;;;5102482;28;20106;-64
2021/10/19 09:11:49;;;;;;;4.95;3.50;;;;;;;;;;5101477;28;20108;-64
2021/10/19 09:14:16;;;;;;;2.97;2.47;;;;;;;;;;5101026;28;20037;-64
2021/10/19 09:16:44;;;;;;;4.25;3.10;;;;;;;;;;5104857;28;20057;-64
2021/10/19 09:19:11;;;;;;;3.10;2.58;;;;;;;;;;5102695;28;20023;-64
2021/10/19 09:21:42;;;;;;;3.63;3.05;;;;;;;;;;5089518;28;20027;-64
2021/10/19 09:24:29;;;;;;;4.03;3.10;;;;;;;;;;5100155;28;20028;-64
2021/10/19 09:27:02;;;;;;;3.63;2.92;;;;;;;;;;5104427;28;20123;-71
2021/10/19 09:29:30;;;;;;;3.58;2.97;;;;;;;;;;5103661;28;20032;-64
2021/10/19 09:31:58;;;;;;;4.15;3.25;;;;;;;;;;5092225;28;20058;-64
2021/10/19 09:34:27;;;;;;;3.97;2.88;;;;;;;;;;5088827;28;20094;-71
2021/10/19 09:36:53;;;;;;;3.80;3.10;;;;;;;;;;5087568;28;20058;-71
2021/10/19 09:39:32;;;;;;;3.67;2.60;;;;;;;;;;5106203;28;20551;-71
2021/10/19 09:41:57;;;;;;;4.57;3.65;;;;;;;;;;5110030;28;20036;-71
2021/10/19 09:44:23;;;;;;;4.78;3.38;;;;;;;;;;5107790;28;20037;-72
2021/10/19 09:46:49;;;;;;;4.40;3.90;;;;;;;;;;5107723;28;20058;-71
2021/10/19 09:49:15;;;;;;;3.65;2.78;;;;;;;;;;5106228;28;20043;-71
2021/10/19 09:51:41;;;;;;;4.65;3.92;;;;;;;;;;5107297;28;20023;-72
2021/10/19 09:54:09;;;;;;;4.82;3.35;;;;;;;;;;5095019;28;20031;-71
2021/10/19 09:56:39;;;;;;;4.82;3.72;;;;;;;;;;5105556;28;20031;-72
2021/10/19 09:59:06;;;;;;;4.85;4.28;;;;;;;;;;5103068;28;20049;-72
2021/10/19 10:01:33;;;;;;;4.85;3.88;;;;;;;;;;5106161;28;20031;-73
2021/10/19 10:03:59;;;;;;;5.10;4.18;;;;;;;;;;5105513;28;20067;-72
2021/10/19 10:06:25;;;;;;;4.40;3.60;;;;;;;;;;5094187;28;20123;-73
2021/10/19 10:08:52;;;;;;;4.82;4.00;;;;;;;;;;5106960;28;20039;-71
2021/10/19 10:11:18;;;;;;;4.45;3.42;;;;;;;;;;5106631;28;20048;-71
2021/10/19 10:14:03;;;;;;;6.65;3.78;;;;;;;;;;5106685;28;20057;-71
2021/10/19 10:16:45;;;;;;;6.22;5.13;;;;;;;;;;5107040;28;20476;-72
2021/10/19 10:19:15;;;;;;;5.53;4.63;;;;;;;;;;5091698;28;20541;-71
2021/10/19 10:21:52;;;;;;;9.97;5.80;;;;;;;;;;5106099;28;20307;-71
2021/10/19 10:24:32;;;;;;;4.43;4.00;;;;;;;;;;5102856;28;20308;-71
2021/10/19 10:27:03;;;;;;;5.15;4.65;;;;;;;;;;5106898;28;20028;-71
2021/10/19 10:29:38;;;;;;;8.52;4.80;;;;;;;;;;5104186;28;20027;-72
2021/10/19 10:32:03;;;;;;;6.38;4.43;;;;;;;;;;5106097;28;20406;-72
2021/10/19 10:34:30;;;;;;;7.57;5.20;;;;;;;;;;5107653;28;20029;-72
2021/10/19 10:37:11;;;;;;;6.15;4.60;;;;;;;;;;5087267;28;20101;-71
2021/10/19 10:39:40;;;;;;;6.90;4.43;;;;;;;;;;5104584;28;20114;-72
2021/10/19 10:42:08;;;;;;;5.63;4.70;;;;;;;;;;5105463;28;20084;-70
2021/10/19 10:44:36;;;;;;;5.80;4.57;;;;;;;;;;5109004;28;20032;-71
2021/10/19 10:47:05;;;;;;;8.30;5.10;;;;;;;;;;5102411;28;20024;-73
2021/10/19 10:49:33;;;;;;;7.47;4.35;;;;;;;;;;5086366;28;20038;-65
2021/10/19 10:52:01;;;;;;;6.03;4.55;;;;;;;;;;5106710;28;20031;-66
2021/10/19 10:54:27;;;;;;;6.00;4.72;;;;;;;;;;5089132;28;20055;-66
2021/10/19 10:56:54;;;;;;;6.57;4.15;;;;;;;;;;5109903;28;20067;-65
2021/10/19 10:59:37;;;;;;;5.63;4.50;;;;;;;;;;5093009;28;20043;-66
2021/10/19 11:02:10;;;;;;;7.25;5.70;;;;;;;;;;5107190;28;20036;-66
2021/10/19 11:04:50;;;;;;;6.00;4.63;;;;;;;;;;5104091;28;20079;-65
2021/10/19 11:07:36;;;;;;;5.20;4.30;;;;;;;;;;5105933;28;20338;-66
2021/10/19 11:10:15;;;;;;;7.30;5.10;;;;;;;;;;5103771;28;20040;-65
2021/10/19 11:12:42;;;;;;;8.57;4.57;;;;;;;;;;5104047;28;20023;-65
2021/10/19 11:15:18;;;;;;;6.68;4.70;;;;;;;;;;5106146;28;20460;-66
2021/10/19 11:17:48;;;;;;;12.57;5.97;;;;;;;;;;5104882;28;20039;-66
2021/10/19 11:20:15;;;;;;;10.63;4.68;;;;;;;;;;5104586;28;20153;-66
2021/10/19 11:22:41;;;;;;;7.10;5.30;;;;;;;;;;5105891;28;20032;-66
2021/10/19 11:25:08;;;;;;;5.57;3.85;;;;;;;;;;5108215;28;20489;-65
2021/10/19 11:27:34;;;;;;;5.95;4.68;;;;;;;;;;5102490;28;20042;-65
2021/10/19 11:29:59;;;;;;;5.30;3.45;;;;;;;;;;5106245;28;20361;-66
2021/10/19 11:32:25;;;;;;;7.40;4.20;;;;;;;;;;5104036;28;20028;-66
2021/10/19 11:34:54;;;;;;;4.80;3.67;;;;;;;;;;5103304;28;20043;-65
2021/10/19 11:37:20;;;;;;;5.30;4.40;;;;;;;;;;5103225;28;20047;-66
2021/10/19 11:39:45;;;;;;;5.90;3.83;;;;;;;;;;5106368;28;20031;-66
2021/10/19 11:42:11;;;;;;;5.00;4.50;;;;;;;;;;5101272;28;20381;-65
2021/10/19 11:44:36;;;;;;;6.38;4.80;;;;;;;;;;5102175;28;20035;-66
2021/10/19 11:47:04;;;;;;;5.82;4.55;;;;;;;;;;5106766;28;20031;-66
2021/10/19 11:49:38;;;;;;;4.55;3.78;;;;;;;;;;5103500;28;20032;-71
2021/10/19 11:52:05;;;;;;;5.85;4.60;;;;;;;;;;5087769;28;20020;-71
2021/10/19 11:54:31;;;;;;;5.32;4.32;;;;;;;;;;5089743;28;20134;-71
2021/10/19 11:57:10;;;;;;;5.72;3.92;;;;;;;;;;5102253;28;20485;-71
2021/10/19 11:59:41;;;;;;;4.40;4.00;;;;;;;;;;5105776;28;22334;-72
2021/10/19 12:02:07;;;;;;;4.28;3.85;;;;;;;;;;5107186;28;20118;-71
2021/10/19 12:04:39;;;;;;;4.90;3.33;;;;;;;;;;5091305;28;20028;-70
2021/10/19 12:07:04;;;;;;;5.10;4.20;;;;;;;;;;5103264;28;20036;-66
2021/10/19 12:09:29;;;;;;;4.95;4.03;;;;;;;;;;5101537;28;20110;-65
2021/10/19 12:11:57;;;;;;;6.05;4.50;;;;;;;;;;5104867;28;20035;-66
2021/10/19 12:14:32;;;;;;;5.72;4.55;;;;;;;;;;5105078;28;20421;-66
2021/10/19 12:17:00;;;;;;;7.97;4.72;;;;;;;;;;5105397;28;20031;-66
2021/10/19 12:19:27;;;;;;;3.78;3.35;;;;;;;;;;5103515;28;20027;-66
2021/10/19 12:21:58;;;;;;;4.43;3.83;;;;;;;;;;5101595;28;20047;-66
2021/10/19 12:24:24;;;;;;;5.38;4.60;;;;;;;;;;5104052;28;20043;-71
2021/10/19 12:27:02;;;;;;;5.35;4.13;;;;;;;;;;5090499;28;20024;-71
2021/10/19 12:29:33;;;;;;;4.80;3.83;;;;;;;;;;5105251;28;20104;-71
2021/10/19 12:32:00;;;;;;;4.53;3.33;;;;;;;;;;5104466;28;20468;-71
2021/10/19 12:34:27;;;;;;;7.25;3.80;;;;;;;;;;5102514;28;20088;-66
2021/10/19 12:36:53;;;;;;;3.88;3.25;;;;;;;;;;5103696;28;20042;-66
2021/10/19 12:39:20;;;;;;;7.00;5.20;;;;;;;;;;5105640;28;20023;-65
2021/10/19 12:41:46;;;;;;;5.00;4.05;;;;;;;;;;5083235;28;20032;-65
2021/10/19 12:44:17;;;;;;;4.93;4.38;;;;;;;;;;5105198;28;20043;-66
2021/10/19 12:46:45;;;;;;;6.65;4.07;;;;;;;;;;5103778;28;20040;-66
2021/10/19 12:49:11;;;;;;;5.13;4.28;;;;;;;;;;5102458;28;20380;-65
2021/10/19 12:51:38;;;;;;;4.93;4.35;;;;;;;;;;5104229;28;20027;-65
2021/10/19 12:54:07;;;;;;;4.10;3.42;;;;;;;;;;5091695;28;20028;-66
2021/10/19 12:56:34;;;;;;;6.95;4.00;;;;;;;;;;5100065;27;20039;-65
2021/10/19 12:59:00;;;;;;;5.20;4.05;;;;;;;;;;5103257;28;20119;-66
2021/10/19 13:01:26;;;;;;;3.88;3.47;;;;;;;;;;5100204;28;20111;-66
2021/10/19 13:03:52;;;;;;;7.72;4.18;;;;;;;;;;5089879;28;20039;-66
2021/10/19 13:06:18;;;;;;;5.97;4.10;;;;;;;;;;5102171;28;20035;-66
2021/10/19 13:08:46;;;;;;;4.80;4.00;;;;;;;;;;5100372;28;20119;-66
2021/10/19 13:11:12;;;;;;;6.90;4.93;;;;;;;;;;5099753;28;20043;-66
2021/10/19 13:13:37;;;;;;;6.60;4.07;;;;;;;;;;5100707;28;20353;-66
2021/10/19 13:16:04;;;;;;;4.35;3.60;;;;;;;;;;5099704;28;20116;-66
2021/10/19 13:18:30;;;;;;;4.07;3.58;;;;;;;;;;5105835;28;20042;-66
2021/10/19 13:20:56;;;;;;;6.00;4.38;;;;;;;;;;5102606;28;20038;-66
2021/10/19 13:23:22;;;;;;;5.53;4.07;;;;;;;;;;5101227;28;20159;-66
2021/10/19 13:25:48;;;;;;;8.00;4.88;;;;;;;;;;5104233;28;20507;-66
2021/10/19 13:28:18;;;;;;;5.38;4.07;;;;;;;;;;5105478;28;20529;-65
2021/10/19 13:30:48;;;;;;;4.88;4.35;;;;;;;;;;5085020;28;20755;-65
2021/10/19 13:33:14;;;;;;;4.30;3.60;;;;;;;;;;5099039;28;20162;-65
2021/10/19 13:35:40;;;;;;;4.95;4.18;;;;;;;;;;5100766;28;20102;-65
2021/10/19 13:38:05;;;;;;;4.63;3.53;;;;;;;;;;5102279;28;20409;-65
2021/10/19 13:40:31;;;;;;;5.10;3.95;;;;;;;;;;5102320;28;20559;-65
2021/10/19 13:42:57;;;;;;;8.38;4.43;;;;;;;;;;5088908;28;20601;-65
2021/10/19 13:45:22;;;;;;;5.72;3.75;;;;;;;;;;5103221;28;20032;-64
2021/10/19 13:47:48;;;;;;;4.57;3.85;;;;;;;;;;5103201;28;20039;-65
2021/10/19 13:50:13;;;;;;;13.10;4.93;;;;;;;;;;5104296;28;20088;-64
2021/10/19 13:52:39;;;;;;;4.35;3.80;;;;;;;;;;5087769;28;20626;-65
2021/10/19 13:55:09;;;;;;;4.40;3.85;;;;;;;;;;5102091;28;20028;-65
2021/10/19 13:57:39;;;;;;;4.93;4.30;;;;;;;;;;5101484;28;20040;-65
2021/10/19 14:00:08;;;;;;;3.97;3.33;;;;;;;;;;5101859;28;20476;-65
2021/10/19 14:02:34;;;;;;;4.07;3.67;;;;;;;;;;5091234;28;20039;-64
2021/10/19 14:05:00;;;;;;;4.28;3.78;;;;;;;;;;5087325;28;20567;-65
2021/10/19 14:07:26;;;;;;;4.90;3.53;;;;;;;;;;5105296;28;20032;-64
2021/10/19 14:09:52;;;;;;;3.47;2.97;;;;;;;;;;5104076;28;20419;-64
2021/10/19 14:12:17;;;;;;;4.45;3.47;;;;;;;;;;5083866;28;20036;-64
2021/10/19 14:14:43;;;;;;;4.10;3.42;;;;;;;;;;5105085;28;20100;-64
2021/10/19 14:17:08;;;;;;;6.13;3.67;;;;;;;;;;5100032;28;20602;-65
2021/10/19 14:19:34;;;;;;;3.85;3.40;;;;;;;;;;5102843;28;20040;-64
2021/10/19 14:22:01;;;;;;;4.43;3.85;;;;;;;;;;5105986;28;20036;-64
2021/10/19 14:24:26;;;;;;;5.43;4.40;;;;;;;;;;5106235;28;20103;-64
2021/10/19 14:26:52;;;;;;;6.60;3.95;;;;;;;;;;5087341;28;20130;-65
2021/10/19 14:29:17;;;;;;;5.22;3.78;;;;;;;;;;5104336;28;20040;-64
2021/10/19 14:31:44;;;;;;;5.05;4.05;;;;;;;;;;5104243;28;20409;-64
2021/10/19 14:34:10;;;;;;;5.60;4.15;;;;;;;;;;5093086;28;20126;-64
2021/10/19 14:36:36;;;;;;;6.07;4.45;;;;;;;;;;5103601;28;20032;-64
2021/10/19 14:39:01;;;;;;;5.32;4.60;;;;;;;;;;5093975;28;20112;-65
2021/10/19 14:41:27;;;;;;;4.50;4.03;;;;;;;;;;5105872;28;20035;-65